createdAt,value
2022-08-20T00:03:35.415Z,7.4
2022-08-20T00:08:43.721Z,7.52
2022-08-20T00:13:53.475Z,7.52
2022-08-20T00:19:03.234Z,8.13
2022-08-20T00:24:11.731Z,8.13
2022-08-20T00:29:22.712Z,8.04
2022-08-20T00:34:31.883Z,8.04
2022-08-20T00:39:41.862Z,7.57
2022-08-20T00:44:52.029Z,7.57
2022-08-20T00:50:01.806Z,7.02
2022-08-20T00:55:11.589Z,7.02
2022-08-20T01:00:22.509Z,7.32
2022-08-20T01:11:41.702Z,7.32
2022-08-20T01:16:52.682Z,6.82
2022-08-20T01:22:03.747Z,6.73
2022-08-20T01:27:13.480Z,6.73
2022-08-20T01:32:21.958Z,6.63
2022-08-20T01:37:32.017Z,6.63
2022-08-20T01:43:00.030Z,6.66
2022-08-20T01:47:57.665Z,6.66
2022-08-20T01:53:12.860Z,6.66
2022-08-20T01:58:29.658Z,6.66
2022-08-20T02:03:22.427Z,6.94
2022-08-20T02:08:31.093Z,6.94
2022-08-20T02:13:39.383Z,7.49
2022-08-20T02:19:00.938Z,7.49
2022-08-20T02:23:58.916Z,7.52
2022-08-20T02:29:08.050Z,7.47
2022-08-20T02:34:23.210Z,7.47
2022-08-20T02:39:26.284Z,7.71
2022-08-20T02:44:36.036Z,7.71
2022-08-20T02:49:46.459Z,7.77
2022-08-20T02:54:55.551Z,7.77
2022-08-20T03:00:05.340Z,7.85
2022-08-20T03:05:13.821Z,7.85
2022-08-20T03:10:23.465Z,8.07
2022-08-20T03:15:31.396Z,8.07
2022-08-20T03:20:39.891Z,7.91
2022-08-20T03:25:48.995Z,7.91
2022-08-20T03:31:00.075Z,8.09
2022-08-20T03:36:09.783Z,8.09
2022-08-20T03:41:18.272Z,8.43
2022-08-20T03:46:26.763Z,8.43
2022-08-20T03:51:58.836Z,8.24
2022-08-20T03:56:44.354Z,8.24
2022-08-20T04:01:53.145Z,8.31
2022-08-20T04:07:03.248Z,8.31
2022-08-20T04:12:12.402Z,8.4
2022-08-20T04:17:22.722Z,8.4
2022-08-20T04:22:29.953Z,8.3
2022-08-20T04:27:40.358Z,8.3
2022-08-20T04:32:49.746Z,8.34
2022-08-20T04:37:58.002Z,8.34
2022-08-20T04:43:06.535Z,8.28
2022-08-20T04:48:16.843Z,8.28
2022-08-20T04:53:26.184Z,8.4
2022-08-20T04:58:33.903Z,8.4
2022-08-20T05:03:42.963Z,8.35
2022-08-20T05:08:52.123Z,8.35
2022-08-20T05:14:01.211Z,8.71
2022-08-20T05:19:10.345Z,8.71
2022-08-20T05:24:19.488Z,8.66
2022-08-20T05:29:29.854Z,8.66
2022-08-20T05:34:38.338Z,8.35
2022-08-20T05:39:47.140Z,8.35
2022-08-20T05:44:55.931Z,8.48
2022-08-20T05:50:05.752Z,8.19
2022-08-20T05:55:14.860Z,8.19
2022-08-20T06:00:23.926Z,8.32
2022-08-20T06:05:31.780Z,8.32
2022-08-20T06:10:43.529Z,8.32
2022-08-20T06:15:51.969Z,8.32
2022-08-20T06:21:01.142Z,8.5
2022-08-20T06:26:10.378Z,8.5
2022-08-20T06:31:19.316Z,8.58
2022-08-20T06:36:27.774Z,8.58
2022-08-20T06:41:37.576Z,8.62
2022-08-20T06:46:46.031Z,8.62
2022-08-20T06:51:56.397Z,8.97
2022-08-20T06:57:05.576Z,8.97
2022-08-20T07:02:15.308Z,8.72
2022-08-20T07:07:25.070Z,8.72
2022-08-20T07:12:35.465Z,8.77
2022-08-20T07:17:44.557Z,8.77
2022-08-20T07:22:54.332Z,8.44
2022-08-20T07:28:02.196Z,8.44
2022-08-20T07:33:11.506Z,8.6
2022-08-20T07:38:21.043Z,8.6
2022-08-20T07:43:30.210Z,8.86
2022-08-20T07:48:39.280Z,8.86
2022-08-20T07:53:47.804Z,8.56
2022-08-20T07:58:57.576Z,8.56
2022-08-20T08:04:06.647Z,8.39
2022-08-20T08:09:16.464Z,8.39
2022-08-20T08:14:26.185Z,8.32
2022-08-20T08:19:34.006Z,8.32
2022-08-20T08:24:57.928Z,8.43
2022-08-20T08:29:52.829Z,8.43
2022-08-20T08:35:03.247Z,8.5
2022-08-20T08:40:12.954Z,8.5
2022-08-20T08:45:22.147Z,8.21
2022-08-20T08:50:55.058Z,8.21
2022-08-20T08:55:41.645Z,8.21
2022-08-20T09:01:57.076Z,8.13
2022-08-20T09:06:01.169Z,8.13
2022-08-20T09:11:09.694Z,8.1
2022-08-20T09:16:19.402Z,8.1
2022-08-20T09:21:28.528Z,8.01
2022-08-20T09:26:39.470Z,8.01
2022-08-20T09:31:46.672Z,7.93
2022-08-20T09:36:54.620Z,7.93
2022-08-20T09:42:03.723Z,7.95
2022-08-20T09:47:12.839Z,7.95
2022-08-20T09:52:21.325Z,8
2022-08-20T09:57:30.437Z,8
2022-08-20T10:02:38.917Z,8.25
2022-08-20T10:07:48.049Z,8.25
2022-08-20T10:12:57.801Z,8.98
2022-08-20T10:18:06.274Z,8.98
2022-08-20T10:23:16.705Z,9.12
2022-08-20T10:28:25.791Z,9.12
2022-08-20T10:33:34.294Z,9.06
2022-08-20T10:38:43.402Z,9.06
2022-08-20T10:43:57.969Z,9.34
2022-08-20T10:49:13.529Z,9.34
2022-08-20T10:54:29.654Z,9.11
2022-08-20T10:59:45.848Z,9.11
2022-08-20T11:05:01.997Z,8.97
2022-08-20T11:10:17.507Z,8.97
2022-08-20T11:15:56.998Z,9.17
2022-08-20T11:16:36.937Z,9.17
2022-08-20T11:21:31.069Z,9.17
2022-08-20T11:22:11.007Z,9.17
2022-08-20T11:26:51.073Z,9.04
2022-08-20T11:27:31.010Z,9.04
2022-08-20T11:32:10.440Z,8.73
2022-08-20T11:32:50.374Z,8.73
2022-08-20T11:37:26.899Z,8.73
2022-08-20T11:38:06.840Z,8.73
2022-08-20T11:43:18.644Z,8.56
2022-08-20T11:45:09.727Z,8.56
2022-08-20T11:50:24.194Z,8.56
2022-08-20T11:51:54.129Z,8.56
2022-08-20T11:55:53.147Z,8.19
2022-08-20T11:59:06.583Z,8.19
2022-08-20T12:04:28.738Z,7.98
2022-08-20T12:10:43.408Z,7.98
2022-08-20T12:11:33.085Z,7.98
2022-08-20T12:16:42.435Z,8.04
2022-08-20T12:24:39.865Z,7.76
2022-08-20T12:27:23.672Z,7.76
2022-08-20T12:32:19.394Z,7.73
2022-08-20T12:39:47.798Z,7.73
2022-08-20T12:40:37.741Z,7.73
2022-08-20T12:45:02.638Z,7.84
2022-08-20T12:50:18.807Z,7.84
2022-08-20T12:57:16.449Z,7.38
2022-08-20T13:06:07.256Z,7.56
2022-08-20T13:11:22.801Z,7.56
2022-08-20T13:15:50.226Z,7.53
2022-08-20T13:20:21.416Z,7.53
2022-08-20T13:25:31.724Z,7.58
2022-08-20T13:30:40.827Z,7.58
2022-08-20T13:35:53.147Z,7.5
2022-08-20T13:41:03.574Z,7.5
2022-08-20T13:46:14.604Z,7.46
2022-08-20T13:51:30.869Z,7.46
2022-08-20T13:56:36.679Z,7.46
2022-08-20T14:01:48.641Z,7.46
2022-08-20T14:07:00.673Z,7.34
2022-08-20T14:12:09.157Z,7.34
2022-08-20T14:17:20.196Z,7.48
2022-08-20T14:22:32.467Z,7.44
2022-08-20T14:27:42.298Z,7.44
2022-08-20T14:32:52.053Z,7.29
2022-08-20T14:38:05.699Z,7.29
2022-08-20T14:43:10.308Z,7.48
2022-08-20T14:48:20.030Z,7.48
2022-08-20T14:53:31.071Z,7.42
2022-08-20T14:58:40.897Z,7.42
2022-08-20T15:03:55.711Z,7.5
2022-08-20T15:09:06.785Z,7.5
2022-08-20T15:14:19.696Z,7.43
2022-08-20T15:19:25.008Z,7.43
2022-08-20T15:24:34.775Z,7.23
2022-08-20T15:29:43.873Z,7.23
2022-08-20T15:34:55.489Z,7.38
2022-08-20T15:40:02.584Z,7.38
2022-08-20T15:45:22.521Z,7.08
2022-08-20T15:50:45.957Z,7.08
2022-08-20T15:55:56.347Z,7.15
2022-08-20T16:01:26.421Z,7.15
2022-08-20T16:06:15.252Z,7.29
2022-08-20T16:11:24.987Z,7.29
2022-08-20T16:16:37.318Z,7.14
2022-08-20T16:21:46.448Z,7.14
2022-08-20T16:27:13.500Z,7.21
2022-08-20T16:32:22.584Z,7.21
2022-08-20T16:37:31.717Z,7.21
2022-08-20T16:42:40.190Z,7.21
2022-08-20T16:47:48.670Z,7.25
2022-08-20T16:52:59.142Z,7.25
2022-08-20T16:58:06.915Z,7.4
2022-08-20T17:03:16.033Z,7.4
2022-08-20T17:08:30.614Z,7.57
2022-08-20T17:13:46.137Z,7.48
2022-08-20T17:19:02.337Z,7.48
2022-08-20T17:24:17.171Z,7.48
2022-08-20T17:29:31.447Z,7.48
2022-08-20T17:34:46.937Z,7.37
2022-08-20T17:40:01.910Z,7.37
2022-08-20T17:45:17.973Z,7.58
2022-08-20T17:50:34.136Z,7.58
2022-08-20T17:55:49.651Z,7.47
2022-08-20T18:01:29.792Z,7.47
2022-08-20T18:06:25.360Z,7.48
2022-08-20T18:10:49.408Z,7.48
2022-08-20T18:15:25.148Z,7.49
2022-08-20T18:20:27.740Z,7.49
2022-08-20T18:25:37.538Z,7.53
2022-08-20T18:30:48.516Z,7.53
2022-08-20T18:35:58.282Z,7.43
2022-08-20T18:41:06.754Z,7.43
2022-08-20T18:46:16.526Z,7.3
2022-08-20T18:51:26.271Z,7.3
2022-08-20T18:56:36.697Z,7.3
2022-08-20T19:01:47.562Z,7.3
2022-08-20T19:06:58.141Z,7.16
2022-08-20T19:12:04.034Z,7.16
2022-08-20T19:17:13.156Z,7.3
2022-08-20T19:22:21.643Z,7.3
2022-08-20T19:27:31.388Z,7.41
2022-08-20T19:32:51.583Z,7.41
2022-08-20T19:37:52.074Z,7.16
2022-08-20T19:43:00.357Z,7.16
2022-08-20T19:48:10.439Z,7.42
2022-08-20T19:53:31.272Z,7.42
2022-08-20T19:58:27.413Z,7.31
2022-08-20T20:03:36.519Z,7.31
2022-08-20T20:08:45.006Z,7.4
2022-08-20T20:13:54.119Z,7.4
2022-08-20T20:19:28.947Z,7.48
2022-08-20T20:24:11.782Z,7.48
2022-08-20T20:29:21.492Z,7.42
2022-08-20T20:34:30.613Z,7.48
2022-08-20T20:39:40.036Z,7.48
2022-08-20T20:44:48.851Z,7.22
2022-08-20T20:49:59.229Z,7.22
2022-08-20T20:55:08.370Z,7.23
2022-08-20T21:00:17.526Z,7.23
2022-08-20T21:05:27.250Z,7.25
2022-08-20T21:10:35.716Z,7.25
2022-08-20T21:15:44.830Z,7.47
2022-08-20T21:20:57.533Z,7.47
2022-08-20T21:26:13.042Z,7.51
2022-08-20T21:31:27.288Z,7.51
2022-08-20T21:36:41.525Z,7.44
2022-08-20T21:41:58.412Z,7.44
2022-08-20T21:47:12.527Z,7.35
2022-08-20T21:52:29.332Z,7.35
2022-08-20T21:57:45.508Z,7.28
2022-08-20T22:03:00.471Z,7.28
2022-08-20T22:08:15.255Z,7.55
2022-08-20T22:13:33.342Z,7.55
2022-08-20T22:18:48.249Z,7.52
2022-08-20T22:24:04.378Z,7.52
2022-08-20T22:29:19.261Z,7.31
2022-08-20T22:34:35.623Z,7.31
2022-08-20T22:39:51.597Z,7.19
2022-08-20T22:45:26.174Z,7.19
2022-08-20T22:50:23.285Z,7.06
2022-08-20T22:55:39.423Z,7.06
2022-08-20T23:00:54.990Z,7.11
2022-08-20T23:06:10.491Z,7.11
2022-08-20T23:11:26.617Z,7.11
2022-08-20T23:16:40.854Z,7
2022-08-20T23:21:57.047Z,7
2022-08-20T23:27:11.256Z,7.17
2022-08-20T23:32:28.057Z,7.17
2022-08-20T23:36:54.246Z,7.02
2022-08-20T23:41:23.398Z,7.02
2022-08-20T23:46:32.512Z,6.98
2022-08-20T23:51:42.281Z,6.98
2022-08-20T23:56:50.757Z,7.04
